createdAt,value
2018-08-10T00:00:53.826Z,99.90
2018-08-10T00:11:28.751Z,99.90
2018-08-10T00:16:32.290Z,99.90
2018-08-10T00:21:36.462Z,99.90
2018-08-10T00:26:39.924Z,99.90
2018-08-10T00:31:43.836Z,99.90
2018-08-10T00:36:47.389Z,99.90
2018-08-10T00:42:04.262Z,99.90
2018-08-10T00:47:09.950Z,99.90
2018-08-10T00:52:15.133Z,99.90
2018-08-10T00:57:25.044Z,99.90
2018-08-10T01:51:52.044Z,99.90
2018-08-10T01:56:55.548Z,99.90
2018-08-10T02:01:59.059Z,99.90
2018-08-10T02:07:26.169Z,99.90
2018-08-10T02:12:46.401Z,99.90
2018-08-10T02:17:50.841Z,99.90
2018-08-10T02:22:54.345Z,99.90
2018-08-10T02:27:59.023Z,99.90
2018-08-10T02:33:02.484Z,99.90
2018-08-10T02:38:06.052Z,99.90
2018-08-10T02:43:09.519Z,99.90
2018-08-10T02:48:13.051Z,99.90
2018-08-10T02:53:16.591Z,99.90
2018-08-10T02:58:20.045Z,99.90
2018-08-10T03:03:23.727Z,99.90
2018-08-10T03:08:27.204Z,99.90
2018-08-10T03:13:30.734Z,99.90
2018-08-10T03:18:35.088Z,99.90
2018-08-10T03:23:38.657Z,99.90
2018-08-10T03:28:52.843Z,99.90
2018-08-10T03:33:56.464Z,99.90
2018-08-10T03:39:00.083Z,99.90
2018-08-10T03:44:03.662Z,99.90
2018-08-10T03:54:35.148Z,99.90
2018-08-10T03:59:39.362Z,99.90
2018-08-10T04:04:43.766Z,99.90
2018-08-10T04:09:48.176Z,99.90
2018-08-10T04:14:56.603Z,99.90
2018-08-10T04:20:00.136Z,99.90
2018-08-10T04:25:04.440Z,99.90
2018-08-10T04:30:09.289Z,99.90
2018-08-10T04:35:12.803Z,99.90
2018-08-10T04:40:20.180Z,99.90
2018-08-10T04:45:23.551Z,99.90
2018-08-10T04:50:31.041Z,99.90
2018-08-10T04:55:35.751Z,99.90
2018-08-10T05:00:39.326Z,99.90
2018-08-10T05:05:42.945Z,99.90
2018-08-10T05:10:46.492Z,99.90
2018-08-10T05:15:50.105Z,99.90
2018-08-10T05:20:53.957Z,99.90
2018-08-10T05:26:03.537Z,99.90
2018-08-10T05:31:07.066Z,99.90
2018-08-10T05:36:11.527Z,99.90
2018-08-10T05:41:17.241Z,99.90
2018-08-10T05:46:20.833Z,99.90
2018-08-10T05:51:24.359Z,99.90
2018-08-10T05:56:35.419Z,99.90
2018-08-10T06:01:38.825Z,99.90
2018-08-10T06:06:51.401Z,99.90
2018-08-10T06:11:54.920Z,99.90
2018-08-10T06:16:58.364Z,99.90
2018-08-10T06:22:01.898Z,99.90
2018-08-10T06:27:05.603Z,99.90
2018-08-10T06:32:09.121Z,99.90
2018-08-10T06:42:43.867Z,99.90
2018-08-10T06:47:47.649Z,99.90
2018-08-10T06:52:51.259Z,99.90
2018-08-10T06:57:54.670Z,99.90
2018-08-10T07:02:58.073Z,99.90
2018-08-10T07:08:01.931Z,99.90
2018-08-10T07:13:05.630Z,99.90
2018-08-10T07:18:10.175Z,99.90
2018-08-10T07:23:14.003Z,99.90
2018-08-10T07:28:17.932Z,99.90
2018-08-10T07:33:23.128Z,99.90
2018-08-10T07:38:26.992Z,99.90
2018-08-10T07:43:30.764Z,99.90
2018-08-10T07:48:38.944Z,99.90
2018-08-10T07:53:42.793Z,99.90
2018-08-10T07:58:46.696Z,99.90
2018-08-10T08:03:51.604Z,99.90
2018-08-10T08:08:57.445Z,99.90
2018-08-10T08:14:03.361Z,99.90
2018-08-10T08:19:07.351Z,99.90
2018-08-10T08:24:13.376Z,99.90
2018-08-10T08:29:17.299Z,99.90
2018-08-10T08:34:27.691Z,99.90
2018-08-10T08:40:51.452Z,99.90
2018-08-10T08:46:06.332Z,99.90
2018-08-10T08:51:13.462Z,99.90
2018-08-10T08:56:24.074Z,98.60
2018-08-10T09:01:33.902Z,96.80
2018-08-10T09:06:37.701Z,95.60
2018-08-10T09:11:45.010Z,95.00
2018-08-10T09:16:49.077Z,95.50
2018-08-10T09:33:16.995Z,92.30
2018-08-10T09:38:34.046Z,91.70
2018-08-10T09:43:37.891Z,92.20
2018-08-10T09:48:54.310Z,90.50
2018-08-10T09:54:11.389Z,90.80
2018-08-10T09:59:21.074Z,90.90
2018-08-10T10:04:28.357Z,90.00
2018-08-10T10:09:32.658Z,90.40
2018-08-10T10:14:36.783Z,90.50
2018-08-10T10:19:40.607Z,87.00
2018-08-10T10:24:44.846Z,87.70
2018-08-10T10:29:53.899Z,86.50
2018-08-10T10:34:58.685Z,86.40
2018-08-10T10:40:03.140Z,85.10
2018-08-10T10:45:09.077Z,82.50
2018-08-10T10:50:14.404Z,81.00
2018-08-10T10:55:19.295Z,81.50
2018-08-10T11:00:23.728Z,82.50
2018-08-10T11:05:27.892Z,83.10
2018-08-10T11:10:31.725Z,81.50
2018-08-10T11:15:36.564Z,82.20
2018-08-10T11:20:40.403Z,82.90
2018-08-10T11:25:48.301Z,81.30
2018-08-10T11:30:52.235Z,78.60
2018-08-10T11:35:56.080Z,78.40
2018-08-10T11:41:00.138Z,78.90
2018-08-10T11:46:04.232Z,77.70
2018-08-10T11:51:08.297Z,76.60
2018-08-10T11:56:12.321Z,75.90
2018-08-10T12:01:17.214Z,74.50
2018-08-10T12:12:00.479Z,74.80
2018-08-10T12:17:04.421Z,73.80
2018-08-10T12:22:09.183Z,73.10
2018-08-10T12:27:14.550Z,72.90
2018-08-10T12:32:18.775Z,70.40
2018-08-10T12:37:22.592Z,73.20
2018-08-10T12:42:30.799Z,73.80
2018-08-10T12:47:35.935Z,72.50
2018-08-10T12:52:40.176Z,70.80
2018-08-10T12:57:44.314Z,68.30
2018-08-10T13:02:48.318Z,67.90
2018-08-10T13:07:52.562Z,67.60
2018-08-10T13:12:58.002Z,65.40
2018-08-10T13:18:03.329Z,66.10
2018-08-10T13:23:07.055Z,66.80
2018-08-10T13:28:12.159Z,65.30
2018-08-10T13:33:15.993Z,64.80
2018-08-10T13:38:19.751Z,61.00
2018-08-10T13:43:23.762Z,60.30
2018-08-10T13:49:02.085Z,60.00
2018-08-10T13:54:05.892Z,58.20
2018-08-10T13:59:10.464Z,58.20
2018-08-10T14:04:14.584Z,57.70
2018-08-10T14:09:18.311Z,58.30
2018-08-10T14:14:22.005Z,59.50
2018-08-10T14:19:25.680Z,59.80
2018-08-10T14:24:29.355Z,62.70
2018-08-10T14:29:33.498Z,62.70
2018-08-10T14:34:37.286Z,61.80
2018-08-10T14:39:42.123Z,64.10
2018-08-10T14:44:48.080Z,61.80
2018-08-10T14:49:52.053Z,61.30
2018-08-10T14:54:55.999Z,59.60
2018-08-10T15:00:00.550Z,59.40
2018-08-10T15:05:08.774Z,58.80
2018-08-10T15:10:33.375Z,58.80
2018-08-10T15:15:42.699Z,58.20
2018-08-10T15:20:49.612Z,57.60
2018-08-10T15:25:53.799Z,56.20
2018-08-10T15:30:58.104Z,56.30
2018-08-10T15:36:02.090Z,56.40
2018-08-10T15:41:08.150Z,55.90
2018-08-10T15:46:12.384Z,56.50
2018-08-10T15:51:16.566Z,57.60
2018-08-10T15:56:20.860Z,57.20
2018-08-10T16:01:24.750Z,57.10
2018-08-10T16:06:29.979Z,56.40
2018-08-10T16:11:34.114Z,56.30
2018-08-10T16:16:40.401Z,55.00
2018-08-10T16:21:45.042Z,55.30
2018-08-10T16:26:49.311Z,57.40
2018-08-10T16:31:53.520Z,58.00
2018-08-10T16:36:57.617Z,58.70
2018-08-10T16:42:02.526Z,58.30
2018-08-10T16:47:06.589Z,58.20
2018-08-10T16:52:10.547Z,57.30
2018-08-10T16:57:16.505Z,57.00
2018-08-10T17:02:22.312Z,56.90
2018-08-10T17:07:31.433Z,56.90
2018-08-10T17:12:39.725Z,56.90
2018-08-10T17:17:48.923Z,57.50
2018-08-10T17:22:52.795Z,58.40
2018-08-10T17:28:04.908Z,59.10
2018-08-10T17:33:09.774Z,59.80
2018-08-10T17:38:15.343Z,58.80
2018-08-10T17:43:25.327Z,59.50
2018-08-10T17:48:29.359Z,60.30
2018-08-10T17:53:36.820Z,60.70
2018-08-10T17:58:47.058Z,61.90
2018-08-10T18:03:51.181Z,62.60
2018-08-10T18:08:56.638Z,65.00
2018-08-10T18:14:07.267Z,65.00
2018-08-10T18:19:15.473Z,67.40
2018-08-10T18:24:22.700Z,67.70
2018-08-10T18:29:32.111Z,69.40
2018-08-10T18:34:36.763Z,69.60
2018-08-10T18:39:41.558Z,70.80
2018-08-10T18:44:46.397Z,72.70
2018-08-10T18:49:50.567Z,72.70
2018-08-10T18:54:56.501Z,73.10
2018-08-10T19:00:02.664Z,75.40
2018-08-10T19:05:09.001Z,75.10
2018-08-10T19:10:17.662Z,75.80
2018-08-10T19:15:23.509Z,76.00
2018-08-10T19:20:40.158Z,76.90
2018-08-10T19:25:57.994Z,77.10
2018-08-10T19:31:06.623Z,77.50
2018-08-10T19:36:19.643Z,79.40
2018-08-10T19:41:24.745Z,79.60
2018-08-10T19:52:10.917Z,81.10
2018-08-10T19:57:15.323Z,80.50
2018-08-10T20:02:19.906Z,80.50
2018-08-10T20:07:29.842Z,81.00
2018-08-10T20:12:43.210Z,81.00
2018-08-10T20:17:49.057Z,81.30
2018-08-10T20:22:53.877Z,81.00
2018-08-10T20:27:57.614Z,83.00
2018-08-10T20:33:02.714Z,83.90
2018-08-10T20:43:48.215Z,85.10
2018-08-10T20:48:58.546Z,86.10
2018-08-10T20:54:04.609Z,86.30
2018-08-10T20:59:11.022Z,87.00
2018-08-10T21:04:23.858Z,87.60
2018-08-10T21:20:33.809Z,88.40
2018-08-10T21:25:40.047Z,88.30
2018-08-10T21:31:09.721Z,88.20
2018-08-10T21:36:14.468Z,89.80
2018-08-10T21:41:24.996Z,89.30
2018-08-10T21:46:39.328Z,90.00
2018-08-10T21:51:42.919Z,90.40
2018-08-10T21:57:16.697Z,90.60
2018-08-10T22:02:26.617Z,90.70
2018-08-10T22:07:31.659Z,91.30
2018-08-10T22:12:39.359Z,91.60
2018-08-10T22:17:48.217Z,91.80
2018-08-10T22:22:51.620Z,92.10
2018-08-10T22:27:55.085Z,92.30
2018-08-10T22:32:58.521Z,92.70
2018-08-10T22:38:02.235Z,92.90
2018-08-10T22:43:11.158Z,92.90
2018-08-10T22:48:15.340Z,93.00
2018-08-10T22:53:18.828Z,92.80
2018-08-10T22:58:25.816Z,92.70
2018-08-10T23:03:29.137Z,92.90
2018-08-10T23:08:32.730Z,93.30
2018-08-10T23:13:36.267Z,93.70
2018-08-10T23:18:41.827Z,94.30
2018-08-10T23:23:54.951Z,94.60
2018-08-10T23:29:03.952Z,94.70
2018-08-10T23:34:07.690Z,95.50
2018-08-10T23:39:12.268Z,95.80
2018-08-10T23:44:15.882Z,96.10
2018-08-10T23:49:19.847Z,96.40
2018-08-10T23:54:23.367Z,96.80
2018-08-10T23:59:26.869Z,96.90
